| time (UTC) | temp F | wind direction | speed MPH | gust MPH | rain 1hr in | rain 24hr in | rain mn in | humidity % | barometer mb |
| 20260508010005 | 48 | 231 | 0.0 | 1.0 | 0.00 | 0.70 | 0.00 | 100 | 1014.3 |
| 20260508005505 | 48 | 228 | 0.0 | 1.0 | 0.00 | 0.70 | 0.00 | 100 | 1014.3 |
| 20260508005005 | 49 | 230 | 0.0 | 1.0 | 0.00 | 0.70 | 0.00 | 100 | 1014.5 |
| 20260508004505 | 49 | 233 | 0.0 | 1.0 | 0.00 | 0.70 | 0.00 | 100 | 1014.6 |
| 20260508004005 | 49 | 230 | 0.0 | 2.0 | 0.00 | 0.70 | 0.00 | 100 | 1014.6 |
| 20260508003505 | 49 | 237 | 0.0 | 2.0 | 0.00 | 0.70 | 0.00 | 100 | 1014.6 |
| 20260508003006 | 49 | 246 | 1.0 | 2.0 | 0.00 | 0.70 | 0.00 | 100 | 1014.9 |
| 20260508002505 | 49 | 247 | 1.0 | 2.0 | 0.00 | 0.70 | 0.00 | 100 | 1014.8 |
| 20260508002005 | 49 | 246 | 0.0 | 1.0 | 0.00 | 0.70 | 0.00 | 100 | 1014.8 |
| 20260508001505 | 49 | 198 | 0.0 | 1.0 | 0.00 | 0.70 | 0.00 | 100 | 1015.0 |
| 20260508001005 | 49 | 207 | 0.0 | 1.0 | 0.00 | 0.70 | 0.00 | 100 | 1014.9 |
| 20260508000505 | 49 | 199 | 0.0 | 2.0 | 0.00 | 0.70 | 0.00 | 100 | 1015.0 |
| 20260508000006 | 49 | 180 | 0.0 | 2.0 | 0.01 | 0.70 | 0.00 | 100 | 1015.2 |
| 20260507235505 | 49 | 159 | 0.0 | 3.0 | 0.01 | 0.70 | 0.70 | 100 | 1015.1 |
| 20260507235005 | 49 | 158 | 0.0 | 3.0 | 0.01 | 0.70 | 0.70 | 100 | 1015.3 |
| 20260507234505 | 49 | 230 | 0.0 | 1.0 | 0.02 | 0.70 | 0.70 | 100 | 1015.3 |
| 20260507234005 | 49 | 275 | 0.0 | 1.0 | 0.02 | 0.70 | 0.70 | 100 | 1015.3 |
| 20260507233505 | 49 | 243 | 0.0 | 2.0 | 0.03 | 0.70 | 0.70 | 100 | 1015.4 |
| 20260507233005 | 49 | 237 | 0.0 | 2.0 | 0.05 | 0.70 | 0.70 | 100 | 1015.4 |
| 20260507232505 | 49 | 238 | 0.0 | 1.0 | 0.07 | 0.70 | 0.70 | 100 | 1015.5 |
| 20260507232005 | 49 | 237 | 0.0 | 1.0 | 0.08 | 0.70 | 0.70 | 100 | 1015.6 |
| 20260507231526 | 49 | 230 | 0.0 | 1.0 | 0.09 | 0.70 | 0.70 | 100 | 1015.5 |
| 20260507231026 | 49 | 235 | 0.0 | 2.0 | 0.10 | 0.70 | 0.70 | 100 | 1015.7 |
| 20260507230505 | 49 | 234 | 0.0 | 2.0 | 0.11 | 0.70 | 0.70 | 100 | 1015.9 |
| 20260507230005 | 49 | 205 | 0.0 | 2.0 | 0.12 | 0.69 | 0.69 | 100 | 1015.8 |
| 20260507225526 | 49 | 202 | 0.0 | 2.0 | 0.12 | 0.69 | 0.69 | 100 | 1015.8 |
| 20260507225005 | 50 | 179 | 0.0 | 2.0 | 0.12 | 0.69 | 0.69 | 100 | 1015.9 |
| 20260507224505 | 50 | 158 | 1.0 | 3.0 | 0.12 | 0.68 | 0.68 | 100 | 1015.7 |
| 20260507224005 | 50 | 171 | 1.0 | 3.0 | 0.13 | 0.68 | 0.68 | 100 | 1015.9 |
| 20260507223505 | 50 | 150 | 1.0 | 4.0 | 0.14 | 0.67 | 0.67 | 100 | 1016.1 |
| 20260507223005 | 50 | 128 | 1.0 | 4.0 | 0.13 | 0.65 | 0.65 | 100 | 1015.8 |
| 20260507222526 | 50 | 104 | 1.0 | 3.0 | 0.12 | 0.63 | 0.63 | 100 | 1015.8 |
| 20260507222005 | 50 | 87 | 1.0 | 3.0 | 0.12 | 0.62 | 0.62 | 100 | 1015.6 |
| 20260507221505 | 50 | 106 | 0.0 | 2.0 | 0.12 | 0.61 | 0.61 | 100 | 1015.8 |
| 20260507221005 | 50 | 92 | 0.0 | 2.0 | 0.11 | 0.60 | 0.60 | 100 | 1015.7 |
| 20260507220526 | 50 | 224 | 0.0 | 2.0 | 0.11 | 0.59 | 0.59 | 100 | 1015.6 |
| 20260507220005 | 50 | 240 | 0.0 | 1.0 | 0.10 | 0.57 | 0.57 | 100 | 1015.8 |
| 20260507215505 | 50 | 246 | 0.0 | 1.0 | 0.11 | 0.57 | 0.57 | 100 | 1015.8 |
| 20260507215005 | 50 | 298 | 0.0 | 2.0 | 0.12 | 0.57 | 0.57 | 100 | 1015.6 |
| 20260507214505 | 50 | 113 | 1.0 | 4.0 | 0.13 | 0.56 | 0.56 | 100 | 1015.7 |
| 20260507214026 | 50 | 116 | 1.0 | 4.0 | 0.17 | 0.55 | 0.55 | 100 | 1015.5 |
| 20260507213505 | 50 | 18 | 1.0 | 6.0 | 0.21 | 0.53 | 0.53 | 100 | 1015.5 |
| 20260507213026 | 50 | 271 | 1.0 | 6.0 | 0.28 | 0.52 | 0.52 | 100 | 1015.6 |
| 20260507212505 | 50 | 249 | 0.0 | 3.0 | 0.38 | 0.51 | 0.51 | 100 | 1015.4 |
| 20260507212005 | 51 | 246 | 0.0 | 3.0 | 0.39 | 0.50 | 0.50 | 100 | 1015.5 |
| 20260507211505 | 51 | 205 | 0.0 | 1.0 | 0.46 | 0.49 | 0.49 | 100 | 1015.4 |
| 20260507211005 | 50 | 226 | 0.0 | 2.0 | 0.49 | 0.49 | 0.49 | 100 | 1015.3 |
| 20260507210505 | 50 | 230 | 0.0 | 2.0 | 0.48 | 0.48 | 0.48 | 100 | 1015.2 |
| 20260507210005 | 50 | 243 | 1.0 | 2.0 | 0.47 | 0.47 | 0.47 | 100 | 1015.1 |
| 20260507205505 | 49 | 247 | 1.0 | 2.0 | 0.46 | 0.46 | 0.46 | 100 | 1014.9 |
| 20260507205005 | 50 | 245 | 1.0 | 3.0 | 0.45 | 0.45 | 0.45 | 100 | 1014.9 |
| 20260507204505 | 49 | 250 | 1.0 | 3.0 | 0.43 | 0.43 | 0.43 | 97 | 1014.8 |
| 20260507204005 | 49 | 253 | 2.0 | 4.0 | 0.38 | 0.38 | 0.38 | 97 | 1014.7 |
| 20260507203505 | 49 | 249 | 2.0 | 4.0 | 0.32 | 0.32 | 0.32 | 97 | 1014.8 |
| 20260507203005 | 49 | 256 | 3.0 | 7.0 | 0.24 | 0.24 | 0.24 | 96 | 1014.5 |
| 20260507202505 | 50 | 256 | 3.0 | 9.0 | 0.13 | 0.13 | 0.14 | 95 | 1014.6 |
| 20260507202005 | 51 | 255 | 4.0 | 9.0 | 0.11 | 0.11 | 0.11 | 92 | 1014.1 |
| 20260507201505 | 53 | 260 | 3.0 | 7.0 | 0.03 | 0.03 | 0.03 | 87 | 1014.1 |
| 20260507201005 | 57 | 291 | 4.0 | 9.0 | 0.00 | 0.00 | 0.00 | 71 | 1013.6 |
| 20260507200526 | 57 | 298 | 5.0 | 9.0 | 0.00 | 0.00 | 0.00 | 65 | 1013.5 |
| 20260507200005 | 58 | 284 | 3.0 | 9.0 | 0.00 | 0.00 | 0.00 | 66 | 1013.2 |
| 20260507195505 | 59 | 255 | 2.0 | 6.0 | 0.00 | 0.00 | 0.00 | 68 | 1013.4 |
| 20260507195005 | 59 | 253 | 2.0 | 4.0 | 0.00 | 0.00 | 0.00 | 68 | 1013.1 |
| 20260507194505 | 59 | 252 | 2.0 | 7.0 | 0.00 | 0.00 | 0.00 | 70 | 1013.1 |
| 20260507194005 | 59 | 270 | 3.0 | 7.0 | 0.00 | 0.00 | 0.00 | 70 | 1013.2 |
| 20260507193505 | 59 | 317 | 4.0 | 13.0 | 0.00 | 0.00 | 0.00 | 70 | 1013.0 |
| 20260507193005 | 60 | 320 | 6.0 | 13.0 | 0.00 | 0.00 | 0.00 | 70 | 1013.1 |
| 20260507192505 | 60 | 298 | 5.0 | 9.0 | 0.00 | 0.00 | 0.00 | 71 | 1012.7 |
| 20260507192005 | 60 | 302 | 5.0 | 13.0 | 0.00 | 0.00 | 0.00 | 70 | 1012.7 |
| 20260507191526 | 60 | 318 | 4.0 | 13.0 | 0.00 | 0.00 | 0.00 | 68 | 1012.6 |
| 20260507191005 | 61 | 311 | 4.0 | 11.0 | 0.00 | 0.00 | 0.00 | 66 | 1012.4 |
| 20260507190505 | 61 | 284 | 3.0 | 11.0 | 0.00 | 0.00 | 0.00 | 63 | 1012.5 |
| 20260507190006 | 61 | 279 | 3.0 | 8.0 | 0.00 | 0.00 | 0.00 | 62 | 1012.2 |
| 20260507185525 | 61 | 282 | 3.0 | 7.0 | 0.00 | 0.00 | 0.00 | 62 | 1012.3 |
| 20260507185004 | 61 | 272 | 2.0 | 6.0 | 0.00 | 0.00 | 0.00 | 63 | 1012.2 |
| 20260507184505 | 61 | 265 | 2.0 | 6.0 | 0.00 | 0.00 | 0.00 | 62 | 1012.2 |
| 20260507184004 | 61 | 258 | 1.0 | 2.0 | 0.00 | 0.00 | 0.00 | 60 | 1012.1 |
| 20260507183505 | 62 | 203 | 0.0 | 2.0 | 0.00 | 0.00 | 0.00 | 57 | 1011.9 |
| 20260507183005 | 62 | 133 | 1.0 | 4.0 | 0.00 | 0.00 | 0.00 | 54 | 1012.0 |
| 20260507182505 | 63 | 96 | 1.0 | 4.0 | 0.00 | 0.00 | 0.00 | 51 | 1011.9 |
| 20260507182026 | 63 | 141 | 1.0 | 3.0 | 0.00 | 0.00 | 0.00 | 53 | 1011.9 |
| 20260507181525 | 63 | 59 | 1.0 | 4.0 | 0.00 | 0.00 | 0.00 | 53 | 1011.6 |
| 20260507181005 | 63 | 308 | 1.0 | 7.0 | 0.00 | 0.00 | 0.00 | 53 | 1011.7 |
| 20260507180505 | 63 | 311 | 3.0 | 11.0 | 0.00 | 0.00 | 0.00 | 55 | 1011.7 |
| 20260507180026 | 64 | 315 | 4.0 | 11.0 | 0.00 | 0.00 | 0.00 | 55 | 1011.6 |
| 20260507175505 | 65 | 291 | 3.0 | 8.0 | 0.00 | 0.00 | 0.00 | 59 | 1011.6 |
| 20260507175004 | 65 | 279 | 2.0 | 6.0 | 0.00 | 0.00 | 0.00 | 61 | 1011.4 |
| 20260507174505 | 66 | 261 | 1.0 | 6.0 | 0.00 | 0.00 | 0.00 | 59 | 1011.7 |
| 20260507174004 | 66 | 277 | 2.0 | 8.0 | 0.00 | 0.00 | 0.00 | 56 | 1011.4 |
| 20260507173504 | 65 | 279 | 2.0 | 8.0 | 0.00 | 0.00 | 0.00 | 55 | 1011.4 |
| 20260507173005 | 65 | 253 | 1.0 | 4.0 | 0.00 | 0.00 | 0.00 | 54 | 1011.4 |
| 20260507172505 | 66 | 235 | 1.0 | 4.0 | 0.00 | 0.00 | 0.00 | 52 | 1011.3 |
| 20260507172005 | 67 | 65 | 1.0 | 4.0 | 0.00 | 0.00 | 0.00 | 53 | 1011.2 |
| 20260507171505 | 66 | 43 | 1.0 | 4.0 | 0.00 | 0.00 | 0.00 | 50 | 1011.2 |
| 20260507171005 | 67 | 119 | 1.0 | 4.0 | 0.00 | 0.00 | 0.00 | 50 | 1011.0 |
| 20260507170505 | 67 | 206 | 1.0 | 4.0 | 0.00 | 0.00 | 0.00 | 50 | 1010.9 |
| 20260507170005 | 65 | 232 | 0.0 | 2.0 | 0.00 | 0.00 | 0.00 | 53 | 1010.8 |
| 20260507165505 | 65 | 251 | 1.0 | 4.0 | 0.00 | 0.00 | 0.00 | 50 | 1011.0 |
| 20260507165004 | 65 | 263 | 1.0 | 4.0 | 0.00 | 0.00 | 0.00 | 51 | 1010.8 |
| 20260507164504 | 65 | 91 | 1.0 | 4.0 | 0.00 | 0.00 | 0.00 | 54 | 1010.8 |
| 20260507164004 | 65 | 109 | 1.0 | 4.0 | 0.00 | 0.00 | 0.00 | 53 | 1010.8 |
| 20260507163504 | 65 | 66 | 1.0 | 4.0 | 0.00 | 0.00 | 0.00 | 51 | 1010.9 |
| 20260507163005 | 66 | 57 | 1.0 | 4.0 | 0.00 | 0.00 | 0.00 | 50 | 1010.9 |
| 20260507162525 | 66 | 64 | 1.0 | 4.0 | 0.00 | 0.00 | 0.00 | 51 | 1010.6 |
| 20260507162005 | 67 | 60 | 1.0 | 4.0 | 0.00 | 0.00 | 0.00 | 52 | 1010.8 |
| 20260507161504 | 66 | 65 | 0.0 | 2.0 | 0.00 | 0.00 | 0.00 | 54 | 1010.7 |
| 20260507161004 | 65 | 59 | 1.0 | 3.0 | 0.00 | 0.00 | 0.00 | 51 | 1010.6 |
| 20260507160514 | 65 | 52 | 1.0 | 3.0 | 0.00 | 0.00 | 0.00 | 51 | 1010.8 |
| 20260507160008 | 65 | 52 | 1.0 | 4.0 | 0.00 | 0.00 | 0.00 | 53 | 1010.6 |
| 20260507155505 | 65 | 55 | 1.0 | 4.0 | 0.00 | 0.00 | 0.00 | 51 | 1010.8 |
| 20260507155026 | 66 | 73 | 1.0 | 4.0 | 0.00 | 0.00 | 0.00 | 50 | 1010.8 |
| 20260507154505 | 67 | 66 | 1.0 | 4.0 | 0.00 | 0.00 | 0.00 | 47 | 1010.5 |
| 20260507154005 | 67 | 47 | 1.0 | 4.0 | 0.00 | 0.00 | 0.00 | 48 | 1010.6 |
| 20260507153505 | 67 | 59 | 1.0 | 3.0 | 0.00 | 0.00 | 0.00 | 47 | 1010.5 |
| 20260507153004 | 67 | 59 | 1.0 | 4.0 | 0.00 | 0.00 | 0.00 | 45 | 1010.7 |
| 20260507152504 | 69 | 29 | 1.0 | 4.0 | 0.00 | 0.00 | 0.00 | 44 | 1010.7 |
| 20260507152025 | 71 | 314 | 1.0 | 4.0 | 0.00 | 0.00 | 0.00 | 44 | 1010.6 |
| 20260507151505 | 71 | 359 | 2.0 | 8.0 | 0.00 | 0.00 | 0.00 | 44 | 1010.9 |
| 20260507151025 | 69 | 37 | 2.0 | 8.0 | 0.00 | 0.00 | 0.00 | 41 | 1011.0 |
| 20260507150504 | 70 | 53 | 2.0 | 8.0 | 0.00 | 0.00 | 0.00 | 42 | 1011.0 |
| 20260507150005 | 69 | 50 | 2.0 | 8.0 | 0.00 | 0.00 | 0.00 | 44 | 1011.0 |
| 20260507145504 | 69 | 43 | 2.0 | 7.0 | 0.00 | 0.00 | 0.00 | 43 | 1011.2 |
| 20260507145005 | 69 | 32 | 2.0 | 7.0 | 0.00 | 0.00 | 0.00 | 44 | 1011.0 |
| 20260507144505 | 71 | 31 | 2.0 | 9.0 | 0.00 | 0.00 | 0.00 | 46 | 1011.2 |
| 20260507144005 | 69 | 41 | 3.0 | 9.0 | 0.00 | 0.00 | 0.00 | 43 | 1011.2 |
| 20260507143504 | 69 | 50 | 2.0 | 8.0 | 0.00 | 0.00 | 0.00 | 44 | 1011.4 |
| 20260507143005 | 69 | 240 | 1.0 | 6.0 | 0.00 | 0.00 | 0.00 | 46 | 1011.4 |
| 20260507142525 | 70 | 11 | 2.0 | 7.0 | 0.00 | 0.00 | 0.00 | 45 | 1011.4 |
| 20260507142004 | 69 | 31 | 2.0 | 7.0 | 0.00 | 0.00 | 0.00 | 46 | 1011.3 |
| 20260507141526 | 68 | 357 | 2.0 | 8.0 | 0.00 | 0.00 | 0.00 | 43 | 1011.6 |
| 20260507141006 | 69 | 314 | 3.0 | 8.0 | 0.00 | 0.00 | 0.00 | 46 | 1011.6 |
| 20260507140504 | 69 | 312 | 3.0 | 8.0 | 0.00 | 0.00 | 0.00 | 46 | 1011.4 |
| 20260507140006 | 69 | 27 | 3.0 | 10.0 | 0.00 | 0.00 | 0.00 | 46 | 1011.6 |
| 20260507135504 | 68 | 31 | 3.0 | 10.0 | 0.00 | 0.00 | 0.00 | 49 | 1011.4 |
| 20260507135004 | 69 | 11 | 3.0 | 11.0 | 0.00 | 0.00 | 0.00 | 46 | 1011.6 |
| 20260507134504 | 69 | 351 | 3.0 | 11.0 | 0.00 | 0.00 | 0.00 | 49 | 1011.8 |
| 20260507134004 | 70 | 31 | 3.0 | 10.0 | 0.00 | 0.00 | 0.00 | 48 | 1011.8 |
| 20260507133504 | 69 | 50 | 3.0 | 11.0 | 0.00 | 0.00 | 0.00 | 49 | 1012.0 |
| 20260507133004 | 69 | 48 | 3.0 | 11.0 | 0.00 | 0.00 | 0.00 | 49 | 1012.0 |
| 20260507132504 | 69 | 48 | 2.0 | 9.0 | 0.00 | 0.00 | 0.00 | 50 | 1011.9 |
| 20260507132004 | 69 | 45 | 3.0 | 9.0 | 0.00 | 0.00 | 0.00 | 46 | 1011.9 |
| 20260507131504 | 68 | 45 | 3.0 | 8.0 | 0.00 | 0.00 | 0.00 | 46 | 1012.0 |
| 20260507131004 | 68 | 40 | 2.0 | 8.0 | 0.00 | 0.00 | 0.00 | 45 | 1012.2 |
| 20260507130505 | 69 | 3 | 2.0 | 8.0 | 0.00 | 0.00 | 0.00 | 49 | 1012.1 |
| 20260507130005 | 69 | 295 | 2.0 | 6.0 | 0.00 | 0.00 | 0.00 | 46 | 1012.2 |
| 20260507125505 | 69 | 284 | 2.0 | 7.0 | 0.00 | 0.00 | 0.00 | 45 | 1012.3 |
| 20260507125004 | 69 | 310 | 3.0 | 8.0 | 0.00 | 0.00 | 0.00 | 45 | 1012.2 |
| 20260507124504 | 67 | 308 | 3.0 | 8.0 | 0.00 | 0.00 | 0.00 | 44 | 1012.4 |
| 20260507124004 | 68 | 298 | 3.0 | 9.0 | 0.00 | 0.00 | 0.00 | 49 | 1012.4 |
| 20260507123504 | 67 | 298 | 2.0 | 9.0 | 0.00 | 0.00 | 0.00 | 49 | 1012.3 |
| 20260507123005 | 69 | 301 | 1.0 | 8.0 | 0.00 | 0.00 | 0.00 | 45 | 1012.4 |
| 20260507122504 | 68 | 349 | 2.0 | 9.0 | 0.00 | 0.00 | 0.00 | 49 | 1012.5 |
| 20260507122005 | 68 | 17 | 2.0 | 9.0 | 0.00 | 0.00 | 0.00 | 48 | 1012.4 |
| 20260507121504 | 67 | 321 | 2.0 | 7.0 | 0.00 | 0.00 | 0.00 | 51 | 1012.6 |
| 20260507121004 | 69 | 300 | 2.0 | 7.0 | 0.00 | 0.00 | 0.00 | 50 | 1012.7 |
| 20260507120525 | 68 | 308 | 2.0 | 7.0 | 0.00 | 0.00 | 0.00 | 49 | 1012.9 |
| 20260507120005 | 66 | 291 | 2.0 | 8.0 | 0.00 | 0.00 | 0.00 | 51 | 1012.7 |
| 20260507115504 | 68 | 279 | 2.0 | 8.0 | 0.00 | 0.00 | 0.00 | 47 | 1012.9 |
| 20260507115004 | 68 | 267 | 1.0 | 4.0 | 0.00 | 0.00 | 0.00 | 52 | 1012.9 |
| 20260507114504 | 68 | 355 | 1.0 | 6.0 | 0.00 | 0.00 | 0.00 | 52 | 1013.1 |
| 20260507114004 | 66 | 50 | 2.0 | 6.0 | 0.00 | 0.00 | 0.00 | 51 | 1013.1 |
| 20260507113504 | 67 | 345 | 2.0 | 7.0 | 0.00 | 0.00 | 0.00 | 52 | 1013.2 |
| 20260507113005 | 68 | 284 | 2.0 | 7.0 | 0.00 | 0.00 | 0.00 | 52 | 1013.4 |
| 20260507112504 | 67 | 276 | 2.0 | 8.0 | 0.00 | 0.00 | 0.00 | 53 | 1013.5 |
| 20260507112004 | 65 | 352 | 2.0 | 8.0 | 0.00 | 0.00 | 0.00 | 54 | 1013.4 |
| 20260507111506 | 66 | 50 | 2.0 | 7.0 | 0.00 | 0.00 | 0.00 | 50 | 1013.6 |
| 20260507111004 | 64 | 52 | 2.0 | 7.0 | 0.00 | 0.00 | 0.00 | 53 | 1013.4 |
| 20260507110525 | 65 | 340 | 2.0 | 8.0 | 0.00 | 0.00 | 0.00 | 54 | 1013.5 |
| 20260507110005 | 66 | 284 | 2.0 | 8.0 | 0.00 | 0.00 | 0.00 | 53 | 1013.8 |
| 20260507105504 | 67 | 274 | 1.0 | 6.0 | 0.00 | 0.00 | 0.00 | 50 | 1013.8 |
| 20260507105004 | 65 | 277 | 1.0 | 6.0 | 0.00 | 0.00 | 0.00 | 55 | 1013.8 |
| 20260507104505 | 65 | 279 | 2.0 | 4.0 | 0.00 | 0.00 | 0.00 | 53 | 1013.8 |
| 20260507104004 | 65 | 279 | 2.0 | 9.0 | 0.00 | 0.00 | 0.00 | 54 | 1014.0 |
| 20260507103525 | 64 | 269 | 2.0 | 9.0 | 0.00 | 0.00 | 0.00 | 59 | 1014.0 |
| 20260507103004 | 65 | 277 | 2.0 | 6.0 | 0.00 | 0.00 | 0.00 | 56 | 1013.8 |
| 20260507102504 | 65 | 291 | 1.0 | 6.0 | 0.00 | 0.00 | 0.00 | 55 | 1013.9 |
| 20260507102006 | 64 | 267 | 1.0 | 6.0 | 0.00 | 0.00 | 0.00 | 54 | 1014.0 |
| 20260507101504 | 64 | 275 | 2.0 | 6.0 | 0.00 | 0.00 | 0.00 | 56 | 1014.1 |
| 20260507101004 | 64 | 279 | 1.0 | 4.0 | 0.00 | 0.00 | 0.00 | 53 | 1014.2 |
| 20260507100504 | 63 | 262 | 1.0 | 4.0 | 0.00 | 0.00 | 0.00 | 60 | 1014.1 |
| 20260507100005 | 63 | 271 | 1.0 | 4.0 | 0.00 | 0.00 | 0.00 | 54 | 1014.1 |
| 20260507095504 | 62 | 86 | 1.0 | 4.0 | 0.00 | 0.00 | 0.00 | 57 | 1014.2 |
| 20260507095004 | 61 | 238 | 1.0 | 3.0 | 0.00 | 0.00 | 0.00 | 62 | 1014.3 |
| 20260507094504 | 61 | 196 | 1.0 | 2.0 | 0.00 | 0.00 | 0.00 | 63 | 1014.5 |
| 20260507094004 | 61 | 79 | 1.0 | 3.0 | 0.00 | 0.00 | 0.00 | 66 | 1014.3 |
| 20260507093525 | 60 | 43 | 1.0 | 3.0 | 0.00 | 0.00 | 0.00 | 66 | 1014.7 |
| 20260507093004 | 60 | 294 | 1.0 | 3.0 | 0.00 | 0.00 | 0.00 | 67 | 1014.6 |
| 20260507092525 | 61 | 273 | 1.0 | 3.0 | 0.00 | 0.00 | 0.00 | 67 | 1014.7 |
| 20260507092004 | 61 | 266 | 1.0 | 3.0 | 0.00 | 0.00 | 0.00 | 65 | 1014.8 |
| 20260507091504 | 60 | 288 | 1.0 | 3.0 | 0.00 | 0.00 | 0.00 | 69 | 1014.5 |
| 20260507091004 | 59 | 327 | 1.0 | 4.0 | 0.00 | 0.00 | 0.00 | 67 | 1014.5 |
| 20260507090504 | 59 | 305 | 1.0 | 4.0 | 0.00 | 0.00 | 0.00 | 67 | 1014.5 |
| 20260507090005 | 60 | 350 | 1.0 | 4.0 | 0.00 | 0.00 | 0.00 | 66 | 1014.6 |
| 20260507085504 | 58 | 40 | 1.0 | 3.0 | 0.00 | 0.00 | 0.00 | 70 | 1014.7 |
| 20260507085004 | 59 | 252 | 1.0 | 2.0 | 0.00 | 0.00 | 0.00 | 68 | 1014.7 |
| 20260507084504 | 58 | 257 | 1.0 | 2.0 | 0.00 | 0.00 | 0.00 | 70 | 1014.6 |
| 20260507084004 | 58 | 256 | 1.0 | 2.0 | 0.00 | 0.00 | 0.00 | 71 | 1014.7 |
| 20260507083504 | 56 | 253 | 1.0 | 2.0 | 0.00 | 0.00 | 0.00 | 71 | 1014.6 |
| 20260507083025 | 57 | 252 | 1.0 | 2.0 | 0.00 | 0.00 | 0.00 | 73 | 1014.8 |
| 20260507082525 | 56 | 266 | 1.0 | 3.0 | 0.00 | 0.00 | 0.00 | 75 | 1014.6 |
| 20260507082004 | 56 | 273 | 1.0 | 4.0 | 0.00 | 0.00 | 0.00 | 76 | 1014.6 |
| 20260507081504 | 55 | 28 | 1.0 | 4.0 | 0.00 | 0.00 | 0.00 | 79 | 1014.5 |
| 20260507081004 | 55 | 292 | 1.0 | 3.0 | 0.00 | 0.00 | 0.00 | 78 | 1014.5 |
| 20260507080504 | 55 | 258 | 1.0 | 3.0 | 0.00 | 0.00 | 0.00 | 79 | 1014.7 |
| 20260507080025 | 54 | 251 | 1.0 | 2.0 | 0.00 | 0.00 | 0.00 | 79 | 1014.7 |
| 20260507075504 | 54 | 255 | 1.0 | 2.0 | 0.00 | 0.00 | 0.00 | 79 | 1014.9 |
| 20260507075025 | 54 | 248 | 0.0 | 2.0 | 0.00 | 0.00 | 0.00 | 80 | 1014.7 |
| 20260507074504 | 53 | 251 | 1.0 | 2.0 | 0.00 | 0.00 | 0.00 | 80 | 1014.9 |
| 20260507074004 | 53 | 254 | 1.0 | 2.0 | 0.00 | 0.00 | 0.00 | 80 | 1014.7 |
| 20260507073504 | 52 | 251 | 1.0 | 2.0 | 0.00 | 0.00 | 0.00 | 80 | 1014.8 |
| 20260507073025 | 53 | 242 | 0.0 | 2.0 | 0.00 | 0.00 | 0.00 | 80 | 1015.0 |
| 20260507072504 | 54 | 235 | 0.0 | 1.0 | 0.00 | 0.00 | 0.00 | 78 | 1014.7 |
| 20260507072004 | 51 | 247 | 0.0 | 2.0 | 0.00 | 0.00 | 0.00 | 82 | 1014.8 |
| 20260507071504 | 51 | 243 | 0.0 | 2.0 | 0.00 | 0.00 | 0.00 | 84 | 1015.1 |
| 20260507071004 | 52 | 236 | 0.0 | 2.0 | 0.00 | 0.00 | 0.00 | 82 | 1015.1 |
| 20260507070504 | 51 | 240 | 0.0 | 2.0 | 0.00 | 0.00 | 0.00 | 83 | 1015.1 |
| 20260507070009 | 50 | 239 | 0.0 | 1.0 | 0.00 | 0.00 | 0.00 | 83 | 1014.8 |
| 20260507065504 | 51 | 239 | 0.0 | 1.0 | 0.00 | 0.00 | 0.00 | 82 | 1015.0 |
| 20260507065004 | 49 | 238 | 0.0 | 1.0 | 0.00 | 0.00 | 0.00 | 85 | 1014.7 |
| 20260507064504 | 49 | 235 | 0.0 | 1.0 | 0.00 | 0.00 | 0.00 | 88 | 1014.7 |
| 20260507064025 | 48 | 240 | 0.0 | 1.0 | 0.00 | 0.00 | 0.00 | 89 | 1015.0 |
| 20260507063504 | 47 | 244 | 0.0 | 1.0 | 0.00 | 0.00 | 0.00 | 90 | 1014.8 |
| 20260507063004 | 46 | 241 | 0.0 | 1.0 | 0.00 | 0.00 | 0.00 | 92 | 1014.7 |
| 20260507062504 | 46 | 243 | 0.0 | 1.0 | 0.00 | 0.00 | 0.00 | 93 | 1014.8 |
| 20260507062025 | 45 | 244 | 0.0 | 1.0 | 0.00 | 0.00 | 0.00 | 93 | 1014.8 |
| 20260507061504 | 45 | 237 | 0.0 | 1.0 | 0.00 | 0.00 | 0.00 | 93 | 1014.9 |
| 20260507061004 | 45 | 235 | 0.0 | 1.0 | 0.00 | 0.00 | 0.00 | 94 | 1014.7 |
| 20260507060505 | 44 | 231 | 0.0 | 1.0 | 0.00 | 0.00 | 0.00 | 93 | 1014.6 |
| 20260507060004 | 44 | 0 | 0.0 | 0.0 | 0.00 | 0.00 | 0.00 | 93 | 1014.3 |
| 20260507055504 | 44 | 220 | 0.0 | 1.0 | 0.00 | 0.00 | 0.00 | 93 | 1014.3 |
| 20260507055004 | 44 | 224 | 0.0 | 2.0 | 0.00 | 0.00 | 0.00 | 93 | 1014.3 |
| 20260507054504 | 44 | 224 | 0.0 | 2.0 | 0.00 | 0.00 | 0.00 | 93 | 1014.3 |
| 20260507054025 | 44 | 225 | 0.0 | 1.0 | 0.00 | 0.00 | 0.00 | 94 | 1014.5 |
| 20260507053525 | 44 | 236 | 0.0 | 1.0 | 0.00 | 0.00 | 0.00 | 94 | 1014.6 |
| 20260507053005 | 44 | 238 | 0.0 | 1.0 | 0.00 | 0.00 | 0.00 | 94 | 1014.3 |
| 20260507052504 | 44 | 234 | 0.0 | 1.0 | 0.00 | 0.00 | 0.00 | 93 | 1014.2 |
| 20260507052004 | 44 | 226 | 0.0 | 1.0 | 0.00 | 0.00 | 0.00 | 93 | 1014.5 |
| 20260507051525 | 44 | 225 | 0.0 | 1.0 | 0.00 | 0.00 | 0.00 | 93 | 1014.1 |
| 20260507051004 | 44 | 222 | 0.0 | 2.0 | 0.00 | 0.00 | 0.00 | 92 | 1014.2 |
| 20260507050504 | 44 | 221 | 0.0 | 2.0 | 0.00 | 0.00 | 0.00 | 92 | 1014.2 |
| 20260507050025 | 44 | 222 | 0.0 | 1.0 | 0.00 | 0.00 | 0.00 | 93 | 1014.3 |
| 20260507045504 | 44 | 223 | 0.0 | 1.0 | 0.00 | 0.00 | 0.00 | 92 | 1014.1 |
| 20260507045004 | 44 | 222 | 1.0 | 1.0 | 0.00 | 0.00 | 0.00 | 92 | 1014.1 |
| 20260507044525 | 44 | 222 | 1.0 | 1.0 | 0.00 | 0.00 | 0.00 | 92 | 1013.9 |
| 20260507044025 | 44 | 224 | 0.0 | 1.0 | 0.00 | 0.00 | 0.00 | 92 | 1013.9 |
| 20260507043504 | 44 | 225 | 0.0 | 1.0 | 0.00 | 0.00 | 0.00 | 92 | 1014.1 |
| 20260507043004 | 45 | 224 | 0.0 | 1.0 | 0.00 | 0.00 | 0.00 | 92 | 1014.0 |
| 20260507042504 | 45 | 225 | 0.0 | 1.0 | 0.00 | 0.00 | 0.00 | 92 | 1013.9 |
| 20260507042004 | 45 | 225 | 0.0 | 1.0 | 0.00 | 0.00 | 0.00 | 92 | 1014.0 |
| 20260507041504 | 45 | 223 | 0.0 | 1.0 | 0.00 | 0.00 | 0.00 | 91 | 1013.9 |
| 20260507041004 | 45 | 222 | 1.0 | 2.0 | 0.00 | 0.00 | 0.00 | 91 | 1014.0 |
| 20260507040504 | 45 | 222 | 1.0 | 2.0 | 0.00 | 0.00 | 0.00 | 91 | 1013.9 |
| 20260507040025 | 45 | 222 | 0.0 | 2.0 | 0.00 | 0.00 | 0.00 | 92 | 1013.9 |
| 20260507035504 | 45 | 223 | 0.0 | 1.0 | 0.00 | 0.00 | 0.00 | 91 | 1013.9 |
| 20260507035004 | 45 | 224 | 1.0 | 1.0 | 0.00 | 0.00 | 0.00 | 92 | 1013.8 |
| 20260507034504 | 45 | 225 | 1.0 | 1.0 | 0.00 | 0.00 | 0.00 | 92 | 1014.0 |
| 20260507034004 | 45 | 223 | 1.0 | 1.0 | 0.00 | 0.00 | 0.00 | 92 | 1013.8 |
| 20260507033504 | 46 | 223 | 1.0 | 1.0 | 0.00 | 0.00 | 0.00 | 91 | 1014.2 |
| 20260507033025 | 45 | 225 | 0.0 | 1.0 | 0.00 | 0.00 | 0.00 | 92 | 1014.0 |
| 20260507032504 | 46 | 221 | 0.0 | 1.0 | 0.00 | 0.00 | 0.00 | 90 | 1013.9 |
| 20260507032025 | 46 | 223 | 0.0 | 1.0 | 0.00 | 0.00 | 0.00 | 90 | 1014.0 |
| 20260507031504 | 46 | 224 | 0.0 | 1.0 | 0.00 | 0.00 | 0.00 | 91 | 1014.1 |
| 20260507031004 | 46 | 221 | 0.0 | 1.0 | 0.00 | 0.00 | 0.00 | 91 | 1014.0 |
| 20260507030504 | 46 | 0 | 0.0 | 0.0 | 0.00 | 0.00 | 0.00 | 91 | 1014.1 |
| 20260507030025 | 46 | 0 | 0.0 | 0.0 | 0.00 | 0.00 | 0.00 | 91 | 1014.0 |
| 20260507025504 | 46 | 223 | 0.0 | 2.0 | 0.00 | 0.00 | 0.00 | 90 | 1014.2 |
| 20260507025004 | 46 | 223 | 0.0 | 2.0 | 0.00 | 0.00 | 0.00 | 91 | 1014.2 |
| 20260507024504 | 46 | 224 | 0.0 | 1.0 | 0.00 | 0.00 | 0.00 | 91 | 1014.0 |
| 20260507024004 | 46 | 225 | 0.0 | 1.0 | 0.00 | 0.00 | 0.00 | 92 | 1014.0 |
| 20260507023504 | 46 | 223 | 0.0 | 1.0 | 0.00 | 0.00 | 0.00 | 91 | 1013.9 |
| 20260507023004 | 46 | 221 | 0.0 | 1.0 | 0.00 | 0.00 | 0.00 | 91 | 1014.1 |
| 20260507022504 | 47 | 221 | 1.0 | 1.0 | 0.00 | 0.00 | 0.00 | 90 | 1014.1 |
| 20260507022025 | 46 | 222 | 0.0 | 1.0 | 0.00 | 0.00 | 0.00 | 90 | 1014.0 |
| 20260507021504 | 46 | 224 | 0.0 | 1.0 | 0.00 | 0.00 | 0.00 | 90 | 1013.9 |
| 20260507021004 | 46 | 230 | 0.0 | 1.0 | 0.00 | 0.00 | 0.00 | 90 | 1013.9 |
| 20260507020504 | 47 | 230 | 0.0 | 1.0 | 0.00 | 0.00 | 0.00 | 90 | 1013.9 |
| 20260507020025 | 47 | 232 | 0.0 | 1.0 | 0.00 | 0.00 | 0.00 | 89 | 1013.9 |
| 20260507015504 | 47 | 239 | 0.0 | 1.0 | 0.00 | 0.00 | 0.00 | 89 | 1013.9 |
| 20260507015025 | 47 | 235 | 0.0 | 1.0 | 0.00 | 0.00 | 0.00 | 89 | 1013.7 |
| 20260507014504 | 47 | 224 | 0.0 | 2.0 | 0.00 | 0.00 | 0.00 | 89 | 1013.8 |
| 20260507014004 | 47 | 223 | 1.0 | 2.0 | 0.00 | 0.00 | 0.00 | 89 | 1013.8 |
| 20260507013525 | 47 | 224 | 1.0 | 1.0 | 0.00 | 0.00 | 0.00 | 89 | 1013.8 |
| 20260507013004 | 47 | 225 | 0.0 | 1.0 | 0.00 | 0.00 | 0.00 | 89 | 1013.8 |
| 20260507012504 | 47 | 225 | 1.0 | 2.0 | 0.00 | 0.00 | 0.00 | 89 | 1013.9 |
| 20260507012004 | 47 | 225 | 1.0 | 2.0 | 0.00 | 0.00 | 0.00 | 88 | 1014.1 |
| 20260507011525 | 47 | 224 | 0.0 | 1.0 | 0.00 | 0.00 | 0.00 | 88 | 1014.1 |
| 20260507011004 | 47 | 224 | 1.0 | 2.0 | 0.00 | 0.00 | 0.00 | 88 | 1014.2 |
| 20260507010504 | 47 | 221 | 1.0 | 2.0 | 0.00 | 0.00 | 0.00 | 89 | 1014.1 |